createdAt,value
2018-06-25T00:01:30.949Z,101217.58
2018-06-25T00:03:58.916Z,101220.02
2018-06-25T00:06:26.937Z,101226.47
2018-06-25T00:08:54.974Z,101215.49
2018-06-25T00:11:23.065Z,101218.38
2018-06-25T00:13:51.073Z,101220.50
2018-06-25T00:16:19.093Z,101220.67
2018-06-25T00:18:47.088Z,101218.39
2018-06-25T00:21:15.082Z,101225.11
2018-06-25T00:23:43.085Z,101225.66
2018-06-25T00:26:11.124Z,101225.14
2018-06-25T00:28:39.176Z,101224.44
2018-06-25T00:31:07.197Z,101222.09
2018-06-25T00:33:35.187Z,101215.56
2018-06-25T00:36:03.188Z,101217.67
2018-06-25T00:38:31.194Z,101209.98
2018-06-25T00:40:59.184Z,101211.97
2018-06-25T00:43:27.196Z,101209.27
2018-06-25T00:45:55.197Z,101209.43
2018-06-25T00:48:23.196Z,101206.97
2018-06-25T00:50:51.176Z,101204.84
2018-06-25T00:53:19.177Z,101194.59
2018-06-25T00:55:47.223Z,101193.27
2018-06-25T00:58:15.266Z,101193.63
2018-06-25T01:00:43.236Z,101190.73
2018-06-25T01:03:11.256Z,101189.11
2018-06-25T01:05:39.258Z,101187.44
2018-06-25T01:08:07.305Z,101193.37
2018-06-25T01:10:35.296Z,101193.44
2018-06-25T01:13:03.313Z,101197.56
2018-06-25T01:15:31.308Z,101199.47
2018-06-25T01:17:59.308Z,101207.30
2018-06-25T01:20:27.968Z,101210.37
2018-06-25T01:22:55.965Z,101210.22
2018-06-25T01:25:23.952Z,101209.11
2018-06-25T01:27:51.968Z,101213.04
2018-06-25T01:30:19.965Z,101211.22
2018-06-25T01:32:47.980Z,101212.34
2018-06-25T01:35:15.988Z,101213.45
2018-06-25T01:37:44.017Z,101201.93
2018-06-25T01:40:12.016Z,101207.87
2018-06-25T01:42:40.001Z,101212.38
2018-06-25T01:45:07.985Z,101208.80
2018-06-25T01:47:35.968Z,101209.38
2018-06-25T01:50:03.989Z,101206.28
2018-06-25T01:52:31.992Z,101199.04
2018-06-25T01:55:00.052Z,101200.30
2018-06-25T01:57:28.057Z,101201.19
2018-06-25T01:59:56.064Z,101203.79
2018-06-25T02:02:24.044Z,101206.78
2018-06-25T02:04:52.049Z,101204.96
2018-06-25T02:07:20.080Z,101201.52
2018-06-25T02:09:48.111Z,101208.66
2018-06-25T02:12:16.102Z,101203.40
2018-06-25T02:14:44.313Z,101205.44
2018-06-25T02:17:12.338Z,101203.63
2018-06-25T02:19:40.329Z,101196.00
2018-06-25T02:22:08.312Z,101201.55
2018-06-25T02:24:36.313Z,101206.77
2018-06-25T02:27:04.336Z,101206.50
2018-06-25T02:29:33.168Z,101207.56
2018-06-25T02:32:01.183Z,101212.61
2018-06-25T02:34:29.249Z,101212.77
2018-06-25T02:36:57.296Z,101214.74
2018-06-25T02:39:25.317Z,101214.49
2018-06-25T02:41:53.310Z,101211.34
2018-06-25T02:44:21.349Z,101214.40
2018-06-25T02:46:49.372Z,101213.03
2018-06-25T02:49:17.404Z,101217.52
2018-06-25T02:51:45.381Z,101220.53
2018-06-25T02:54:13.380Z,101216.20
2018-06-25T02:56:41.387Z,101212.77
2018-06-25T02:59:09.529Z,101215.95
2018-06-25T03:01:37.470Z,101220.67
2018-06-25T03:04:05.598Z,101218.36
2018-06-25T03:06:33.593Z,101220.11
2018-06-25T03:09:01.588Z,101224.01
2018-06-25T03:11:29.577Z,101224.39
2018-06-25T03:13:57.599Z,101229.66
2018-06-25T03:16:25.665Z,101229.27
2018-06-25T03:21:33.124Z,101223.87
2018-06-25T03:24:01.129Z,101224.59
2018-06-25T03:26:29.352Z,101226.20
2018-06-25T03:28:57.381Z,101226.80
2018-06-25T03:31:25.388Z,101223.06
2018-06-25T03:33:53.413Z,101225.27
2018-06-25T03:36:21.443Z,101226.70
2018-06-25T03:38:49.443Z,101227.00
2018-06-25T03:41:17.430Z,101231.80
2018-06-25T03:43:45.481Z,101231.51
2018-06-25T03:46:13.489Z,101236.89
2018-06-25T03:48:41.534Z,101236.38
2018-06-25T03:51:09.546Z,101241.86
2018-06-25T03:53:37.552Z,101245.39
2018-06-25T03:56:05.607Z,101254.72
2018-06-25T03:58:33.621Z,101254.72
2018-06-25T04:01:01.676Z,101259.39
2018-06-25T04:03:29.656Z,101252.01
2018-06-25T04:05:57.890Z,101259.16
2018-06-25T04:08:25.932Z,101263.84
2018-06-25T04:10:53.965Z,101265.72
2018-06-25T04:13:22.058Z,101264.75
2018-06-25T04:15:50.062Z,101270.48
2018-06-25T04:18:18.212Z,101275.17
2018-06-25T04:20:46.301Z,101279.91
2018-06-25T04:23:14.278Z,101272.92
2018-06-25T04:25:42.296Z,101275.89
2018-06-25T04:28:10.291Z,101279.34
2018-06-25T04:30:38.319Z,101271.43
2018-06-25T04:33:06.300Z,101277.22
2018-06-25T04:35:34.308Z,101279.91
2018-06-25T04:38:02.461Z,101286.00
2018-06-25T04:40:30.485Z,101286.11
2018-06-25T04:42:58.473Z,101287.54
2018-06-25T04:45:26.501Z,101290.33
2018-06-25T04:47:54.525Z,101292.07
2018-06-25T04:50:22.543Z,101289.34
2018-06-25T04:52:50.546Z,101292.16
2018-06-25T04:55:18.548Z,101291.07
2018-06-25T04:57:46.532Z,101285.08
2018-06-25T05:00:14.572Z,101283.49
2018-06-25T05:02:42.619Z,101286.18
2018-06-25T05:05:10.621Z,101283.27
2018-06-25T05:07:38.593Z,101280.84
2018-06-25T05:10:06.604Z,101276.28
2018-06-25T05:12:34.581Z,101280.59
2018-06-25T05:15:02.688Z,101277.68
2018-06-25T05:17:30.733Z,101270.52
2018-06-25T05:19:58.804Z,101273.66
2018-06-25T05:22:26.839Z,101274.01
2018-06-25T05:24:54.921Z,101275.02
2018-06-25T05:27:23.030Z,101275.73
2018-06-25T05:29:51.195Z,101282.38
2018-06-25T05:32:19.225Z,101285.40
2018-06-25T05:34:47.224Z,101280.05
2018-06-25T05:37:15.245Z,101283.84
2018-06-25T05:39:43.286Z,101288.83
2018-06-25T05:42:15.464Z,101292.06
2018-06-25T05:44:43.501Z,101290.24
2018-06-25T05:47:11.530Z,101289.75
2018-06-25T05:49:39.539Z,101290.61
2018-06-25T05:52:07.716Z,101293.42
2018-06-25T05:54:35.764Z,101300.22
2018-06-25T05:57:03.755Z,101296.69
2018-06-25T05:59:31.766Z,101302.05
2018-06-25T06:01:59.773Z,101302.38
2018-06-25T06:04:27.794Z,101298.63
2018-06-25T06:06:55.798Z,101295.31
2018-06-25T06:09:23.809Z,101295.47
2018-06-25T06:11:51.844Z,101302.27
2018-06-25T06:14:19.837Z,101297.77
2018-06-25T06:16:47.841Z,101298.76
2018-06-25T06:19:15.824Z,101290.61
2018-06-25T06:21:43.826Z,101300.82
2018-06-25T06:24:11.826Z,101299.48
2018-06-25T06:26:39.845Z,101303.47
2018-06-25T06:29:07.864Z,101308.19
2018-06-25T06:31:35.916Z,101312.30
2018-06-25T06:34:03.942Z,101307.94
2018-06-25T06:36:31.970Z,101308.41
2018-06-25T06:38:59.975Z,101313.14
2018-06-25T06:41:27.993Z,101310.13
2018-06-25T06:43:56.022Z,101304.16
2018-06-25T06:46:24.052Z,101308.33
2018-06-25T06:48:52.040Z,101313.86
2018-06-25T06:51:20.045Z,101312.42
2018-06-25T06:53:48.030Z,101311.94
2018-06-25T06:56:16.077Z,101316.31
2018-06-25T06:58:44.098Z,101313.69
2018-06-25T07:01:12.114Z,101321.31
2018-06-25T07:03:40.101Z,101326.77
2018-06-25T07:06:08.147Z,101323.71
2018-06-25T07:08:36.148Z,101322.75
2018-06-25T07:11:04.469Z,101330.38
2018-06-25T07:13:33.761Z,101326.91
2018-06-25T07:16:01.834Z,101335.11
2018-06-25T07:18:29.821Z,101331.42
2018-06-25T07:20:57.804Z,101333.54
2018-06-25T07:23:25.794Z,101327.46
2018-06-25T07:25:53.805Z,101327.97
2018-06-25T07:28:21.965Z,101322.04
2018-06-25T07:30:50.020Z,101325.64
2018-06-25T07:33:18.009Z,101331.66
2018-06-25T07:35:46.013Z,101327.00
2018-06-25T07:38:14.051Z,101335.91
2018-06-25T07:40:42.045Z,101333.07
2018-06-25T07:43:10.402Z,101330.05
2018-06-25T07:45:39.070Z,101336.52
2018-06-25T07:48:07.077Z,101340.26
2018-06-25T07:50:35.065Z,101338.99
2018-06-25T07:53:03.112Z,101341.38
2018-06-25T07:55:31.105Z,101341.33
2018-06-25T07:57:59.109Z,101344.06
2018-06-25T08:00:27.090Z,101347.58
2018-06-25T08:02:55.089Z,101353.50
2018-06-25T08:05:23.078Z,101343.89
2018-06-25T08:07:51.131Z,101347.62
2018-06-25T08:10:19.210Z,101352.91
2018-06-25T08:12:47.930Z,101352.32
2018-06-25T08:15:15.940Z,101352.01
2018-06-25T08:17:43.965Z,101353.69
2018-06-25T08:20:12.105Z,101359.35
2018-06-25T08:22:40.150Z,101361.55
2018-06-25T08:25:08.147Z,101361.47
2018-06-25T08:27:36.179Z,101366.50
2018-06-25T08:30:04.807Z,101370.30
2018-06-25T08:32:32.801Z,101365.99
2018-06-25T08:35:00.797Z,101381.00
2018-06-25T08:37:29.372Z,101383.66
2018-06-25T08:39:57.385Z,101386.56
2018-06-25T08:42:25.380Z,101391.61
2018-06-25T08:44:53.388Z,101388.88
2018-06-25T08:47:21.404Z,101390.09
2018-06-25T08:49:49.412Z,101394.89
2018-06-25T08:52:17.419Z,101390.13
2018-06-25T08:54:45.437Z,101400.59
2018-06-25T08:57:13.441Z,101399.75
2018-06-25T08:59:41.424Z,101401.73
2018-06-25T09:02:09.416Z,101406.21
2018-06-25T09:04:37.433Z,101401.55
2018-06-25T09:07:05.475Z,101401.44
2018-06-25T09:09:33.545Z,101400.77
2018-06-25T09:12:01.478Z,101397.27
2018-06-25T09:14:29.488Z,101401.35
2018-06-25T09:16:57.600Z,101397.83
2018-06-25T09:19:25.606Z,101397.70
2018-06-25T09:21:53.667Z,101404.31
2018-06-25T09:24:21.666Z,101405.53
2018-06-25T09:26:49.661Z,101411.16
2018-06-25T09:29:17.665Z,101408.40
2018-06-25T09:31:45.753Z,101405.39
2018-06-25T09:34:19.219Z,101407.19
2018-06-25T09:36:47.207Z,101399.05
2018-06-25T09:39:15.298Z,101399.50
2018-06-25T09:41:43.613Z,101399.87
2018-06-25T09:44:11.748Z,101398.61
2018-06-25T09:46:40.037Z,101410.16
2018-06-25T09:49:08.049Z,101409.24
2018-06-25T09:51:36.061Z,101405.33
2018-06-25T09:54:04.081Z,101405.61
2018-06-25T09:56:32.089Z,101412.28
2018-06-25T09:59:00.106Z,101409.83
2018-06-25T10:01:28.152Z,101412.26
2018-06-25T10:03:56.151Z,101413.30
2018-06-25T10:06:24.145Z,101417.40
2018-06-25T10:08:52.175Z,101426.66
2018-06-25T10:11:20.189Z,101431.70
2018-06-25T10:13:48.216Z,101425.00
2018-06-25T10:16:16.209Z,101434.74
2018-06-25T10:18:44.249Z,101424.33
2018-06-25T10:21:12.487Z,101428.34
2018-06-25T10:23:40.444Z,101430.09
2018-06-25T10:26:08.761Z,101432.12
2018-06-25T10:28:37.295Z,101427.14
2018-06-25T10:31:05.309Z,101424.19
2018-06-25T10:33:33.349Z,101427.79
2018-06-25T10:36:01.344Z,101434.55
2018-06-25T10:38:29.385Z,101443.67
2018-06-25T10:40:57.409Z,101440.80
2018-06-25T10:43:25.453Z,101449.63
2018-06-25T10:45:53.451Z,101449.75
2018-06-25T10:48:21.432Z,101449.98
2018-06-25T10:50:49.446Z,101451.86
2018-06-25T10:53:17.477Z,101451.17
2018-06-25T10:55:45.493Z,101452.89
2018-06-25T10:58:13.568Z,101455.83
2018-06-25T11:00:41.673Z,101455.45
2018-06-25T11:03:09.692Z,101450.25
2018-06-25T11:05:37.720Z,101452.24
2018-06-25T11:08:05.795Z,101441.33
2018-06-25T11:10:33.826Z,101446.78
2018-06-25T11:13:01.897Z,101453.16
2018-06-25T11:15:29.857Z,101453.87
2018-06-25T11:17:57.864Z,101450.85
2018-06-25T11:20:25.941Z,101448.02
2018-06-25T11:22:53.936Z,101445.31
2018-06-25T11:25:21.960Z,101450.86
2018-06-25T11:27:50.024Z,101457.94
2018-06-25T11:30:18.012Z,101452.45
2018-06-25T11:32:47.135Z,101454.25
2018-06-25T11:35:15.151Z,101453.44
2018-06-25T11:37:43.256Z,101451.88
2018-06-25T11:40:11.269Z,101448.95
2018-06-25T11:42:39.304Z,101443.44
2018-06-25T11:45:07.404Z,101440.52
2018-06-25T11:47:35.440Z,101448.98
2018-06-25T11:50:03.473Z,101449.64
2018-06-25T11:52:31.497Z,101450.17
2018-06-25T11:54:59.529Z,101451.86
2018-06-25T11:57:27.536Z,101450.95
2018-06-25T11:59:55.575Z,101455.70
2018-06-25T12:02:23.582Z,101453.92
2018-06-25T12:04:51.590Z,101458.09
2018-06-25T12:07:19.756Z,101446.67
2018-06-25T12:09:47.832Z,101439.97
2018-06-25T12:12:15.854Z,101447.52
2018-06-25T12:14:43.941Z,101448.64
2018-06-25T12:17:12.043Z,101447.95
2018-06-25T12:19:40.468Z,101450.52
2018-06-25T12:22:08.966Z,101452.58
2018-06-25T12:24:37.669Z,101454.97
2018-06-25T12:27:05.796Z,101458.53
2018-06-25T12:29:33.891Z,101459.06
2018-06-25T12:32:02.075Z,101454.59
2018-06-25T12:34:30.003Z,101453.20
2018-06-25T12:36:58.140Z,101457.34
2018-06-25T12:39:26.200Z,101457.84
2018-06-25T12:41:54.299Z,101455.02
2018-06-25T12:44:22.309Z,101454.03
2018-06-25T12:46:50.336Z,101456.52
2018-06-25T12:49:18.956Z,101460.38
2018-06-25T12:51:46.978Z,101457.02
2018-06-25T12:54:14.991Z,101454.55
2018-06-25T12:56:43.052Z,101449.30
2018-06-25T12:59:11.068Z,101452.26
2018-06-25T13:01:39.080Z,101461.25
2018-06-25T13:04:07.076Z,101455.52
2018-06-25T13:06:35.082Z,101464.09
2018-06-25T13:09:03.160Z,101461.42
2018-06-25T13:11:31.362Z,101467.87
2018-06-25T13:13:59.365Z,101464.97
2018-06-25T13:16:27.376Z,101463.38
2018-06-25T13:18:55.596Z,101472.69
2018-06-25T13:21:24.016Z,101475.67
2018-06-25T13:23:52.035Z,101476.23
2018-06-25T13:26:20.118Z,101476.73
2018-06-25T13:28:48.124Z,101480.63
2018-06-25T13:31:16.238Z,101472.77
2018-06-25T13:33:44.130Z,101476.67
2018-06-25T13:36:12.133Z,101474.08
2018-06-25T13:38:40.140Z,101470.30
2018-06-25T13:41:08.153Z,101474.84
2018-06-25T13:43:36.143Z,101480.13
2018-06-25T13:46:04.212Z,101483.64
2018-06-25T13:48:32.256Z,101479.47
2018-06-25T13:51:00.265Z,101478.31
2018-06-25T13:53:28.276Z,101481.58
2018-06-25T13:55:56.285Z,101475.50
2018-06-25T13:58:24.287Z,101479.91
2018-06-25T14:00:52.364Z,101481.02
2018-06-25T14:03:20.389Z,101474.11
2018-06-25T14:05:48.505Z,101475.23
2018-06-25T14:08:16.505Z,101472.09
2018-06-25T14:10:44.474Z,101478.20
2018-06-25T14:13:12.536Z,101486.83
2018-06-25T14:15:40.560Z,101479.81
2018-06-25T14:18:08.731Z,101473.39
2018-06-25T14:20:36.727Z,101476.41
2018-06-25T14:23:04.794Z,101472.86
2018-06-25T14:25:38.103Z,101471.55
2018-06-25T14:28:11.695Z,101468.91
2018-06-25T14:30:45.066Z,101462.91
2018-06-25T14:33:13.073Z,101467.38
2018-06-25T14:35:41.068Z,101467.06
2018-06-25T14:38:09.100Z,101466.19
2018-06-25T14:40:37.159Z,101474.97
2018-06-25T14:43:05.241Z,101468.62
2018-06-25T14:45:33.241Z,101475.69
2018-06-25T14:48:01.319Z,101474.30
2018-06-25T14:50:29.300Z,101467.48
2018-06-25T14:52:57.336Z,101467.27
2018-06-25T14:55:25.399Z,101473.95
2018-06-25T14:57:53.458Z,101476.59
2018-06-25T15:00:22.037Z,101473.53
2018-06-25T15:02:51.233Z,101471.26
2018-06-25T15:05:19.264Z,101476.59
2018-06-25T15:07:47.411Z,101474.52
2018-06-25T15:10:15.438Z,101478.05
2018-06-25T15:12:43.497Z,101480.23
2018-06-25T15:15:11.505Z,101477.22
2018-06-25T15:17:39.558Z,101472.55
2018-06-25T15:20:07.617Z,101467.13
2018-06-25T15:22:35.692Z,101466.80
2018-06-25T15:25:03.716Z,101473.76
2018-06-25T15:27:31.708Z,101468.14
2018-06-25T15:29:59.800Z,101472.73
2018-06-25T15:32:30.475Z,101467.22
2018-06-25T15:34:58.649Z,101469.30
2018-06-25T15:37:26.809Z,101467.69
2018-06-25T15:39:54.822Z,101465.73
2018-06-25T15:42:22.829Z,101464.62
2018-06-25T15:44:50.879Z,101464.00
2018-06-25T15:47:18.993Z,101459.09
2018-06-25T15:49:47.037Z,101456.61
2018-06-25T15:52:15.137Z,101450.80
2018-06-25T15:54:43.192Z,101449.64
2018-06-25T15:57:11.217Z,101449.59
2018-06-25T15:59:39.281Z,101445.46
2018-06-25T16:02:07.279Z,101447.70
2018-06-25T16:04:35.285Z,101446.19
2018-06-25T16:07:03.648Z,101443.39
2018-06-25T16:09:31.877Z,101446.78
2018-06-25T16:11:59.875Z,101453.66
2018-06-25T16:14:28.277Z,101445.12
2018-06-25T16:16:56.486Z,101443.94
2018-06-25T16:19:24.527Z,101449.70
2018-06-25T16:21:52.612Z,101451.55
2018-06-25T16:24:20.658Z,101443.07
2018-06-25T16:26:48.776Z,101450.44
2018-06-25T16:29:16.765Z,101446.02
2018-06-25T16:31:44.771Z,101453.83
2018-06-25T16:34:12.951Z,101452.75
2018-06-25T16:36:41.046Z,101453.13
2018-06-25T16:39:11.168Z,101452.42
2018-06-25T16:41:39.376Z,101451.91
2018-06-25T16:44:07.613Z,101448.05
2018-06-25T16:46:35.920Z,101447.75
2018-06-25T16:49:04.083Z,101449.61
2018-06-25T16:51:32.231Z,101447.78
2018-06-25T16:54:00.244Z,101454.21
2018-06-25T16:56:28.284Z,101461.55
2018-06-25T16:58:56.356Z,101462.37
2018-06-25T17:01:24.356Z,101459.36
2018-06-25T17:03:52.336Z,101462.59
2018-06-25T17:06:20.329Z,101465.44
2018-06-25T17:08:48.367Z,101464.86
2018-06-25T17:11:16.690Z,101464.52
2018-06-25T17:13:44.685Z,101461.90
2018-06-25T17:16:12.741Z,101464.86
2018-06-25T17:18:40.768Z,101462.07
2018-06-25T17:21:08.933Z,101460.63
2018-06-25T17:23:36.955Z,101457.32
2018-06-25T17:26:05.276Z,101460.04
2018-06-25T17:28:33.302Z,101459.55
2018-06-25T17:31:01.288Z,101454.85
2018-06-25T17:33:29.276Z,101456.52
2018-06-25T17:35:57.303Z,101455.34
2018-06-25T17:38:25.280Z,101447.42
2018-06-25T17:40:53.253Z,101460.35
2018-06-25T17:43:22.340Z,101458.24
2018-06-25T17:45:50.327Z,101459.46
2018-06-25T17:48:18.426Z,101463.71
2018-06-25T17:50:46.493Z,101467.05
2018-06-25T17:53:14.521Z,101470.86
2018-06-25T17:55:42.649Z,101472.33
2018-06-25T17:58:10.686Z,101477.80
2018-06-25T18:00:38.707Z,101474.38
2018-06-25T18:03:06.737Z,101470.13
2018-06-25T18:05:34.765Z,101473.80
2018-06-25T18:08:02.876Z,101474.39
2018-06-25T18:10:30.948Z,101478.88
2018-06-25T18:12:59.617Z,101478.89
2018-06-25T18:15:27.685Z,101472.95
2018-06-25T18:17:55.716Z,101477.43
2018-06-25T18:20:23.749Z,101475.62
2018-06-25T18:22:51.779Z,101468.33
2018-06-25T18:25:19.907Z,101471.56
2018-06-25T18:27:47.974Z,101472.44
2018-06-25T18:30:16.026Z,101470.34
2018-06-25T18:32:44.048Z,101472.30
2018-06-25T18:35:12.038Z,101485.02
2018-06-25T18:37:40.115Z,101481.61
2018-06-25T18:40:08.581Z,101477.64
2018-06-25T18:42:36.648Z,101477.64
2018-06-25T18:45:04.953Z,101485.41
2018-06-25T18:47:33.040Z,101489.97
2018-06-25T18:50:01.165Z,101491.45
2018-06-25T18:52:29.165Z,101495.06
2018-06-25T18:54:57.165Z,101501.30
2018-06-25T18:57:25.261Z,101492.69
2018-06-25T18:59:53.442Z,101496.03
2018-06-25T19:02:21.512Z,101497.09
2018-06-25T19:04:49.585Z,101504.81
2018-06-25T19:07:17.697Z,101507.47
2018-06-25T19:09:45.748Z,101511.34
2018-06-25T19:12:13.845Z,101506.44
2018-06-25T19:14:41.997Z,101498.50
2018-06-25T19:17:09.997Z,101496.80
2018-06-25T19:19:38.006Z,101496.34
2018-06-25T19:22:06.236Z,101494.40
2018-06-25T19:24:34.253Z,101502.48
2018-06-25T19:27:02.318Z,101498.66
2018-06-25T19:29:30.341Z,101498.94
2018-06-25T19:31:58.325Z,101507.03
2018-06-25T19:34:26.318Z,101504.11
2018-06-25T19:36:54.397Z,101510.80
2018-06-25T19:39:22.417Z,101509.55
2018-06-25T19:41:50.417Z,101513.81
2018-06-25T19:44:18.426Z,101520.48
2018-06-25T19:46:46.429Z,101521.30
2018-06-25T19:49:14.459Z,101521.65
2018-06-25T19:51:42.534Z,101518.33
2018-06-25T19:54:10.609Z,101518.81
2018-06-25T19:56:39.711Z,101520.38
2018-06-25T19:59:07.709Z,101517.87
2018-06-25T20:01:35.827Z,101532.27
2018-06-25T20:04:03.818Z,101523.17
2018-06-25T20:06:31.833Z,101530.72
2018-06-25T20:08:59.933Z,101527.14
2018-06-25T20:11:28.005Z,101530.75
2018-06-25T20:13:56.009Z,101532.84
2018-06-25T20:16:24.009Z,101527.97
2018-06-25T20:18:52.156Z,101532.28
2018-06-25T20:21:20.160Z,101533.12
2018-06-25T20:23:48.155Z,101527.73
2018-06-25T20:26:16.220Z,101535.25
2018-06-25T20:28:44.229Z,101533.30
2018-06-25T20:31:12.270Z,101534.94
2018-06-25T20:33:40.441Z,101543.69
2018-06-25T20:36:08.452Z,101534.77
2018-06-25T20:38:36.455Z,101533.70
2018-06-25T20:41:04.496Z,101531.22
2018-06-25T20:43:32.497Z,101531.82
2018-06-25T20:46:00.639Z,101535.52
2018-06-25T20:48:28.668Z,101528.81
2018-06-25T20:50:56.737Z,101535.42
2018-06-25T20:53:24.934Z,101542.14
2018-06-25T20:55:52.821Z,101539.95
2018-06-25T20:58:20.858Z,101543.20
2018-06-25T21:00:48.912Z,101552.30
2018-06-25T21:03:16.960Z,101550.08
2018-06-25T21:05:44.972Z,101544.48
2018-06-25T21:08:13.005Z,101542.88
2018-06-25T21:10:41.005Z,101555.30
2018-06-25T21:13:08.993Z,101556.00
2018-06-25T21:15:36.981Z,101556.83
2018-06-25T21:18:04.972Z,101561.88
2018-06-25T21:20:32.994Z,101553.16
2018-06-25T21:23:00.993Z,101554.62
2018-06-25T21:25:29.154Z,101555.83
2018-06-25T21:27:57.104Z,101556.70
2018-06-25T21:30:25.306Z,101555.95
2018-06-25T21:32:53.288Z,101554.41
2018-06-25T21:35:21.288Z,101554.73
2018-06-25T21:37:49.264Z,101554.66
2018-06-25T21:40:17.267Z,101558.86
2018-06-25T21:42:45.258Z,101565.52
2018-06-25T21:45:13.253Z,101563.45
2018-06-25T21:47:41.345Z,101566.20
2018-06-25T21:50:09.350Z,101563.42
2018-06-25T21:52:37.321Z,101564.53
2018-06-25T21:55:05.534Z,101565.09
2018-06-25T21:57:33.597Z,101564.18
2018-06-25T22:00:01.604Z,101561.00
2018-06-25T22:02:29.692Z,101567.80
2018-06-25T22:04:57.714Z,101569.08
2018-06-25T22:07:25.711Z,101563.54
2018-06-25T22:09:53.713Z,101565.02
2018-06-25T22:12:21.734Z,101565.33
2018-06-25T22:14:49.717Z,101563.23
2018-06-25T22:17:17.704Z,101556.61
2018-06-25T22:19:45.792Z,101564.20
2018-06-25T22:22:13.796Z,101568.78
2018-06-25T22:24:41.795Z,101562.66
2018-06-25T22:27:09.862Z,101558.55
2018-06-25T22:29:37.867Z,101558.30
2018-06-25T22:32:05.860Z,101554.67
2018-06-25T22:34:33.954Z,101562.90
2018-06-25T22:37:02.996Z,101565.88
2018-06-25T22:39:31.018Z,101561.24
2018-06-25T22:41:59.056Z,101559.84
2018-06-25T22:44:27.067Z,101564.98
2018-06-25T22:46:55.608Z,101566.71
2018-06-25T22:49:23.603Z,101565.09
2018-06-25T22:51:51.577Z,101565.58
2018-06-25T22:54:19.577Z,101560.08
2018-06-25T22:56:48.624Z,101553.02
2018-06-25T22:59:16.632Z,101557.36
2018-06-25T23:01:44.650Z,101553.81
2018-06-25T23:04:12.635Z,101553.23
2018-06-25T23:06:40.638Z,101547.83
2018-06-25T23:09:09.829Z,101552.28
2018-06-25T23:11:37.856Z,101549.08
2018-06-25T23:14:05.833Z,101560.45
2018-06-25T23:16:33.893Z,101553.08
2018-06-25T23:19:01.924Z,101554.22
2018-06-25T23:21:29.949Z,101551.20
2018-06-25T23:23:57.952Z,101548.11
2018-06-25T23:26:25.973Z,101551.25
2018-06-25T23:28:54.076Z,101552.16
2018-06-25T23:31:22.097Z,101554.95
2018-06-25T23:33:50.107Z,101546.23
2018-06-25T23:36:18.114Z,101555.63
2018-06-25T23:38:46.197Z,101552.50
2018-06-25T23:41:14.432Z,101553.16
2018-06-25T23:43:42.460Z,101552.95
2018-06-25T23:46:10.540Z,101550.45
2018-06-25T23:48:38.587Z,101546.14
2018-06-25T23:51:06.621Z,101552.74
2018-06-25T23:53:34.616Z,101553.83
2018-06-25T23:56:02.625Z,101550.59
2018-06-25T23:58:30.724Z,101556.31
